Time;durP1;ratioP1;P1;durP2;ratioP2;P2;SDS_P1;SDS_P2;PMS_P1;PMS_P2;Temp;Humidity;BMP_temperature;BMP_pressure;BME280_temperature;BME280_humidity;BME280_pressure;Samples;Min_cycle;Max_cycle;Signal;HPM_P1;HPM_P2
2022/07/04 00:00:28;;;;;;;1.17;0.98;;;14.40;8.70;;;;;;5083107;28;34122;-74
2022/07/04 00:02:55;;;;;;;1.60;1.00;;;14.40;8.60;;;;;;5099789;28;34366;-74
2022/07/04 00:05:21;;;;;;;1.08;0.93;;;14.30;8.70;;;;;;5082971;28;35704;-74
2022/07/04 00:07:49;;;;;;;1.00;0.80;;;14.30;8.70;;;;;;5082574;28;34233;-73
2022/07/04 00:10:18;;;;;;;2.28;0.82;;;14.20;8.80;;;;;;5117069;27;34108;-73
2022/07/04 00:12:45;;;;;;;1.45;1.00;;;14.20;9.10;;;;;;5100259;28;34633;-73
2022/07/04 00:15:12;;;;;;;1.27;0.90;;;14.20;9.00;;;;;;5083838;28;34433;-74
2022/07/04 00:17:38;;;;;;;0.80;0.75;;;14.10;9.30;;;;;;5102919;28;34104;-74
2022/07/04 00:20:06;;;;;;;2.10;0.80;;;14.10;9.30;;;;;;5103855;28;34074;-74
2022/07/04 00:22:32;;;;;;;1.40;0.90;;;14.00;9.30;;;;;;5120395;27;34431;-74
2022/07/04 00:24:58;;;;;;;1.42;1.00;;;13.90;9.30;;;;;;5103434;27;34063;-73
2022/07/04 00:27:23;;;;;;;2.05;0.90;;;14.00;9.40;;;;;;5137302;27;34123;-74
2022/07/04 00:29:50;;;;;;;0.82;0.82;;;13.90;9.50;;;;;;5103886;28;34221;-74
2022/07/04 00:32:16;;;;;;;0.80;0.80;;;13.90;9.50;;;;;;5137524;27;34191;-74
2022/07/04 00:34:42;;;;;;;0.80;0.80;;;13.80;9.50;;;;;;5137176;27;36395;-73
2022/07/04 00:37:08;;;;;;;2.35;0.80;;;13.80;9.60;;;;;;5102555;28;34298;-73
2022/07/04 00:39:34;;;;;;;0.90;0.75;;;13.70;9.80;;;;;;5102846;28;34123;-73
2022/07/04 00:42:00;;;;;;;1.08;0.90;;;13.70;9.90;;;;;;5137560;27;34246;-74
2022/07/04 00:44:26;;;;;;;1.25;0.82;;;13.70;10.00;;;;;;5102911;28;35928;-74
2022/07/04 00:46:52;;;;;;;0.90;0.90;;;13.70;10.00;;;;;;5084680;28;34089;-74
2022/07/04 00:49:18;;;;;;;0.85;0.85;;;13.70;10.10;;;;;;5082244;28;34382;-74
2022/07/04 00:51:45;;;;;;;1.13;0.80;;;13.60;10.10;;;;;;5081797;28;34300;-73
2022/07/04 00:54:13;;;;;;;0.70;0.70;;;13.60;10.00;;;;;;5082188;28;35699;-74
2022/07/04 00:56:41;;;;;;;0.73;0.73;;;13.60;10.20;;;;;;5065375;28;34119;-74
2022/07/04 00:59:08;;;;;;;0.70;0.70;;;13.60;10.30;;;;;;5076504;28;34080;-74
2022/07/04 01:01:34;;;;;;;1.02;1.00;;;13.60;10.30;;;;;;5097704;28;34125;-74
2022/07/04 01:04:02;;;;;;;1.42;1.00;;;13.60;10.30;;;;;;5119754;27;36348;-74
2022/07/04 01:06:28;;;;;;;0.70;0.70;;;13.50;10.30;;;;;;5136917;27;34026;-74
2022/07/04 01:08:55;;;;;;;2.05;0.95;;;13.50;10.30;;;;;;5136549;27;34128;-73
2022/07/04 01:11:21;;;;;;;1.60;1.10;;;13.40;10.30;;;;;;5091404;28;34378;-74
2022/07/04 01:13:47;;;;;;;2.63;0.90;;;13.40;10.40;;;;;;5082933;28;34395;-75
2022/07/04 01:16:13;;;;;;;0.90;0.90;;;13.40;10.30;;;;;;5082004;28;34088;-73
2022/07/04 01:18:40;;;;;;;0.73;0.73;;;13.40;10.40;;;;;;5081969;28;34355;-73
2022/07/04 01:21:07;;;;;;;2.03;0.93;;;13.30;10.60;;;;;;5083449;28;34304;-74
2022/07/04 01:23:38;;;;;;;1.30;0.77;;;13.30;10.70;;;;;;5081743;28;36841;-74
2022/07/04 01:26:04;;;;;;;1.00;1.00;;;13.30;11.20;;;;;;5115311;27;34250;-74
2022/07/04 01:28:31;;;;;;;1.45;0.80;;;13.30;10.80;;;;;;5081944;28;34251;-74
2022/07/04 01:30:57;;;;;;;0.95;0.90;;;13.20;10.70;;;;;;5081685;28;34214;-74
2022/07/04 01:33:23;;;;;;;1.10;0.93;;;13.20;11.00;;;;;;5119825;27;35927;-74
2022/07/04 01:35:49;;;;;;;1.02;1.02;;;13.10;11.00;;;;;;5135916;27;34140;-74
2022/07/04 01:38:15;;;;;;;1.63;1.00;;;13.10;11.00;;;;;;5104052;28;34415;-73
2022/07/04 01:40:41;;;;;;;2.85;1.08;;;13.10;11.00;;;;;;5085305;28;34408;-74
2022/07/04 01:43:07;;;;;;;3.22;1.00;;;13.00;10.90;;;;;;5084895;28;35805;-74
2022/07/04 01:45:34;;;;;;;1.33;1.23;;;13.00;10.90;;;;;;5085024;28;34118;-74
2022/07/04 01:48:01;;;;;;;1.38;0.90;;;13.00;10.90;;;;;;5091210;28;34101;-74
2022/07/04 01:50:27;;;;;;;3.78;1.10;;;12.90;11.00;;;;;;5085070;28;34230;-74
2022/07/04 01:52:53;;;;;;;1.20;1.10;;;12.80;10.90;;;;;;5084612;28;34491;-73
2022/07/04 01:55:18;;;;;;;1.63;1.05;;;12.80;11.00;;;;;;5101899;28;34185;-74
2022/07/04 01:57:44;;;;;;;1.20;1.10;;;12.80;11.20;;;;;;5085647;28;34530;-73
2022/07/04 02:02:52;;;;;;;1.02;1.00;;;12.70;11.30;;;;;;5085697;28;34160;-73
2022/07/04 02:05:18;;;;;;;2.20;1.05;;;12.70;11.40;;;;;;5119014;27;34204;-73
2022/07/04 02:07:44;;;;;;;1.13;0.90;;;12.60;11.40;;;;;;5085355;28;34160;-74
2022/07/04 02:10:11;;;;;;;0.95;0.95;;;12.60;11.40;;;;;;5086147;28;34062;-74
2022/07/04 02:15:18;;;;;;;2.35;1.02;;;12.50;11.50;;;;;;5087215;28;34191;-73
2022/07/04 02:17:44;;;;;;;2.17;0.90;;;12.40;11.50;;;;;;5122068;27;34123;-74
2022/07/04 02:20:11;;;;;;;1.17;1.10;;;12.40;11.60;;;;;;5130752;27;34107;-74
2022/07/04 02:22:36;;;;;;;1.00;0.95;;;12.40;11.80;;;;;;5085845;28;35173;-73
2022/07/04 02:25:03;;;;;;;1.83;1.20;;;12.40;11.80;;;;;;5085908;28;34147;-73
2022/07/04 02:27:29;;;;;;;3.50;1.20;;;12.30;12.00;;;;;;5101553;28;34113;-73
2022/07/04 02:29:55;;;;;;;1.33;1.00;;;12.30;12.10;;;;;;5105083;28;34503;-73
2022/07/04 02:32:21;;;;;;;1.67;1.15;;;12.30;12.20;;;;;;5104832;28;35921;-73
2022/07/04 02:34:47;;;;;;;3.03;1.17;;;12.30;12.20;;;;;;5104842;28;34333;-74
2022/07/04 02:37:13;;;;;;;1.40;1.10;;;12.30;12.30;;;;;;5139310;27;34260;-74
2022/07/04 02:39:39;;;;;;;2.20;0.95;;;12.30;12.30;;;;;;5138470;27;34373;-73
2022/07/04 02:42:06;;;;;;;1.48;1.20;;;12.30;12.20;;;;;;5089575;28;35983;-73
2022/07/04 02:44:32;;;;;;;1.15;1.13;;;12.30;12.20;;;;;;5105271;28;34349;-73
2022/07/04 02:46:58;;;;;;;1.23;0.95;;;12.20;12.30;;;;;;5105824;28;34027;-73
2022/07/04 02:49:24;;;;;;;1.70;1.10;;;12.20;12.30;;;;;;5105741;28;34581;-73
2022/07/04 02:51:50;;;;;;;1.42;1.20;;;12.20;12.40;;;;;;5128227;27;35902;-74
2022/07/04 02:54:16;;;;;;;0.95;0.95;;;12.20;12.40;;;;;;5127418;27;34188;-73
2022/07/04 02:56:42;;;;;;;2.05;1.20;;;12.20;12.40;;;;;;5123999;27;34103;-73
2022/07/04 02:59:08;;;;;;;2.33;1.13;;;12.10;12.50;;;;;;5126025;27;34415;-74
2022/07/04 03:01:34;;;;;;;1.00;1.00;;;12.10;12.50;;;;;;5125925;27;35478;-73
2022/07/04 03:04:00;;;;;;;1.30;1.20;;;12.10;12.60;;;;;;5121804;27;34318;-73
2022/07/04 03:06:26;;;;;;;1.10;1.10;;;12.10;12.50;;;;;;5118439;27;34126;-73
2022/07/04 03:08:52;;;;;;;2.28;1.10;;;12.00;12.50;;;;;;5118309;27;34000;-73
2022/07/04 03:11:19;;;;;;;4.78;1.20;;;12.00;12.50;;;;;;5084852;28;34117;-73
2022/07/04 03:13:45;;;;;;;2.50;1.10;;;12.00;12.50;;;;;;5102622;28;34190;-74
2022/07/04 03:16:11;;;;;;;1.20;1.10;;;11.90;12.60;;;;;;5139027;27;34076;-73
2022/07/04 03:18:37;;;;;;;1.10;1.00;;;11.90;12.60;;;;;;5105775;28;34183;-73
2022/07/04 03:21:04;;;;;;;1.27;1.10;;;11.90;12.60;;;;;;5121307;27;35817;-73
2022/07/04 03:23:31;;;;;;;5.65;1.02;;;11.80;12.60;;;;;;5135943;27;34257;-73
2022/07/04 03:25:58;;;;;;;1.20;1.10;;;11.80;12.70;;;;;;5084937;28;34028;-74
2022/07/04 03:28:24;;;;;;;3.55;1.10;;;11.80;12.80;;;;;;5083772;28;34368;-73
2022/07/04 03:30:50;;;;;;;2.53;1.00;;;11.70;12.80;;;;;;5082948;28;36382;-72
2022/07/04 03:33:16;;;;;;;1.67;1.10;;;11.70;12.90;;;;;;5083947;28;34082;-73
2022/07/04 03:35:42;;;;;;;2.35;1.20;;;11.70;12.90;;;;;;5083795;28;34332;-73
2022/07/04 03:38:08;;;;;;;1.00;1.00;;;11.70;12.90;;;;;;5088973;28;34246;-73
2022/07/04 03:40:35;;;;;;;2.55;1.30;;;11.70;12.90;;;;;;5083198;28;36554;-73
2022/07/04 03:43:03;;;;;;;1.65;1.25;;;11.70;13.00;;;;;;5084808;28;34171;-73
2022/07/04 03:45:30;;;;;;;1.42;1.25;;;11.70;13.10;;;;;;5083436;28;34233;-73
2022/07/04 03:47:56;;;;;;;1.58;1.30;;;11.70;13.20;;;;;;5083633;28;34104;-73
2022/07/04 03:50:22;;;;;;;2.72;1.20;;;11.70;13.10;;;;;;5099732;28;35813;-73
2022/07/04 03:52:48;;;;;;;1.10;1.10;;;11.70;13.20;;;;;;5099946;28;34052;-73
2022/07/04 03:55:14;;;;;;;1.55;1.45;;;11.70;13.20;;;;;;5089025;28;34212;-73
2022/07/04 03:57:40;;;;;;;1.20;1.10;;;11.70;13.30;;;;;;5103597;28;34096;-73
2022/07/04 04:00:07;;;;;;;3.70;1.42;;;11.70;13.30;;;;;;5137401;27;35994;-74
2022/07/04 04:02:34;;;;;;;2.35;1.27;;;11.70;13.30;;;;;;5136231;27;34460;-73
2022/07/04 04:07:41;;;;;;;1.25;1.15;;;11.60;13.30;;;;;;5103616;28;34148;-73
2022/07/04 04:10:08;;;;;;;1.38;1.27;;;11.60;13.30;;;;;;5104406;28;34556;-73
2022/07/04 04:12:35;;;;;;;1.33;1.23;;;11.60;13.40;;;;;;5103608;28;34107;-74
2022/07/04 04:15:01;;;;;;;1.40;1.30;;;11.60;13.50;;;;;;5115556;27;34080;-73
2022/07/04 04:17:26;;;;;;;2.13;1.30;;;11.60;13.50;;;;;;5109623;27;34164;-73
2022/07/04 04:19:52;;;;;;;2.30;1.13;;;11.60;13.50;;;;;;5121245;27;36682;-73
2022/07/04 04:22:18;;;;;;;1.20;1.10;;;11.50;13.60;;;;;;5114180;27;34090;-73
2022/07/04 04:24:44;;;;;;;3.13;1.25;;;11.50;13.70;;;;;;5102706;28;34327;-72
2022/07/04 04:27:10;;;;;;;1.40;1.30;;;11.60;13.70;;;;;;5126220;27;34447;-73
2022/07/04 04:29:36;;;;;;;1.40;1.08;;;11.60;13.70;;;;;;5082634;28;35741;-73
2022/07/04 04:32:02;;;;;;;2.83;1.33;;;11.60;13.70;;;;;;5100342;27;34390;-73
2022/07/04 04:34:28;;;;;;;1.33;1.23;;;11.60;13.60;;;;;;5105813;27;34163;-73
2022/07/04 04:36:54;;;;;;;1.60;1.50;;;11.60;13.70;;;;;;5103706;28;34181;-73
2022/07/04 04:39:20;;;;;;;1.38;1.27;;;11.50;13.70;;;;;;5117269;27;35555;-73
2022/07/04 04:41:46;;;;;;;2.25;1.33;;;11.60;13.80;;;;;;5082589;28;34119;-73
2022/07/04 04:44:12;;;;;;;2.10;1.25;;;11.50;13.90;;;;;;5100656;28;34314;-73
2022/07/04 04:46:38;;;;;;;3.03;1.20;;;11.50;14.00;;;;;;5086265;28;34288;-73
2022/07/04 04:49:03;;;;;;;1.50;1.40;;;11.60;13.90;;;;;;5102381;28;36577;-73
2022/07/04 04:51:29;;;;;;;1.45;1.35;;;11.60;14.00;;;;;;5103413;28;33979;-73
2022/07/04 04:53:55;;;;;;;3.75;1.48;;;11.60;13.90;;;;;;5103247;28;34249;-73
2022/07/04 04:56:21;;;;;;;2.10;1.33;;;11.70;14.10;;;;;;5128497;27;34175;-73
2022/07/04 04:58:47;;;;;;;2.95;1.40;;;11.70;14.10;;;;;;5098941;28;36137;-73
2022/07/04 05:01:13;;;;;;;1.83;1.48;;;11.70;14.10;;;;;;5082377;28;34121;-73
2022/07/04 05:03:39;;;;;;;2.42;1.55;;;11.80;14.20;;;;;;5082142;28;34087;-73
2022/07/04 05:06:05;;;;;;;3.38;1.50;;;11.90;14.20;;;;;;5081904;28;34496;-73
2022/07/04 05:08:31;;;;;;;1.45;1.35;;;11.90;14.20;;;;;;5119548;27;35755;-73
2022/07/04 05:10:57;;;;;;;3.83;1.77;;;12.00;14.20;;;;;;5093393;28;34389;-74
2022/07/04 05:13:23;;;;;;;1.70;1.60;;;12.00;14.30;;;;;;5084789;28;34218;-74
2022/07/04 05:15:49;;;;;;;2.00;1.60;;;12.00;14.40;;;;;;5086944;28;34629;-73
2022/07/04 05:18:15;;;;;;;7.22;1.73;;;12.10;14.50;;;;;;5105233;28;35652;-75
2022/07/04 05:20:42;;;;;;;1.48;1.38;;;12.20;14.50;;;;;;5107158;28;34075;-73
2022/07/04 05:23:07;;;;;;;3.08;1.80;;;12.40;14.60;;;;;;5102652;27;34269;-73
2022/07/04 05:25:33;;;;;;;2.25;1.90;;;12.80;14.30;;;;;;5111332;27;34059;-74
2022/07/04 05:27:59;;;;;;;4.72;1.70;;;13.50;13.70;;;;;;5118224;27;35971;-74
2022/07/04 05:30:26;;;;;;;3.60;1.52;;;14.40;12.50;;;;;;5160192;27;34210;-75
2022/07/04 05:32:52;;;;;;;1.70;1.60;;;15.50;11.10;;;;;;5123393;27;34233;-74
2022/07/04 05:35:18;;;;;;;4.00;1.63;;;16.50;9.30;;;;;;5127526;27;34438;-74
2022/07/04 05:37:44;;;;;;;1.77;1.50;;;17.60;7.80;;;;;;5125683;27;35725;-74
2022/07/04 05:40:10;;;;;;;1.65;1.55;;;18.60;6.60;;;;;;5109154;27;34354;-74
2022/07/04 05:42:36;;;;;;;1.52;1.20;;;19.60;6.10;;;;;;5107528;27;34328;-75
2022/07/04 05:45:03;;;;;;;2.97;1.10;;;20.50;4.70;;;;;;5106750;28;34522;-74
2022/07/04 05:47:29;;;;;;;1.55;1.00;;;21.30;3.90;;;;;;5120466;27;36060;-75
2022/07/04 05:49:56;;;;;;;1.23;1.10;;;22.00;3.00;;;;;;5084456;28;34605;-75
2022/07/04 05:52:22;;;;;;;1.27;1.00;;;22.60;2.40;;;;;;5090919;28;34288;-75
2022/07/04 05:54:49;;;;;;;3.10;1.08;;;23.30;1.80;;;;;;5130773;27;34473;-75
2022/07/04 05:57:15;;;;;;;2.97;1.17;;;23.70;1.40;;;;;;5086001;28;34162;-75
2022/07/04 05:59:40;;;;;;;1.60;1.20;;;24.00;1.00;;;;;;5118768;27;34094;-75
2022/07/04 06:02:07;;;;;;;1.30;1.20;;;24.30;1.00;;;;;;5086449;28;34251;-75
2022/07/04 06:04:33;;;;;;;1.65;0.77;;;24.70;1.00;;;;;;5129976;27;34073;-75
2022/07/04 06:06:59;;;;;;;1.52;0.90;;;25.10;1.00;;;;;;5112583;27;35674;-75
2022/07/04 06:09:25;;;;;;;3.13;1.10;;;25.40;1.00;;;;;;5106223;27;34198;-75
2022/07/04 06:11:51;;;;;;;1.85;0.63;;;25.80;1.00;;;;;;5125907;27;34255;-75
2022/07/04 06:14:17;;;;;;;1.30;1.08;;;26.30;1.00;;;;;;5127342;27;34202;-75
2022/07/04 06:16:43;;;;;;;4.20;1.05;;;26.70;1.00;;;;;;5104333;27;35869;-75
2022/07/04 06:19:09;;;;;;;1.30;1.00;;;27.00;1.00;;;;;;5105046;28;34277;-75
2022/07/04 06:21:34;;;;;;;3.08;0.98;;;27.10;1.00;;;;;;5110625;27;34301;-75
2022/07/04 06:24:02;;;;;;;2.30;1.10;;;27.20;1.00;;;;;;5128725;27;34071;-75
2022/07/04 06:26:28;;;;;;;3.08;0.82;;;27.40;1.00;;;;;;5138731;27;35546;-75
2022/07/04 06:28:53;;;;;;;1.05;0.90;;;27.60;1.00;;;;;;5139165;27;34183;-75
2022/07/04 06:31:19;;;;;;;0.93;0.82;;;27.60;1.00;;;;;;5118139;27;34327;-75
2022/07/04 06:36:26;;;;;;;3.20;0.82;;;28.00;1.00;;;;;;5091650;28;34726;-76
2022/07/04 06:38:52;;;;;;;1.42;0.90;;;28.20;1.00;;;;;;5104794;28;34016;-76
2022/07/04 06:41:18;;;;;;;1.42;0.93;;;28.30;1.00;;;;;;5133807;27;34284;-75
2022/07/04 06:43:44;;;;;;;1.45;0.98;;;28.50;1.00;;;;;;5138730;27;34511;-76
2022/07/04 06:46:10;;;;;;;3.10;0.80;;;28.70;1.00;;;;;;5138019;27;35874;-77
2022/07/04 06:48:36;;;;;;;2.00;0.90;;;28.90;1.00;;;;;;5106015;27;34335;-76
2022/07/04 06:51:03;;;;;;;1.23;0.82;;;29.10;1.00;;;;;;5138548;27;34454;-76
2022/07/04 06:53:48;;;;;;;2.05;1.00;;;29.10;1.00;;;;;;5104732;28;34308;-76
2022/07/04 06:56:14;;;;;;;1.15;0.90;;;29.30;1.00;;;;;;5093840;28;36656;-77
2022/07/04 06:58:40;;;;;;;1.45;0.80;;;29.50;1.00;;;;;;5085231;28;34222;-76
2022/07/04 07:01:05;;;;;;;0.93;0.88;;;29.50;1.00;;;;;;5103114;27;34423;-76
2022/07/04 07:03:34;;;;;;;2.15;0.70;;;29.40;1.00;;;;;;5078215;28;34151;-76
2022/07/04 07:06:02;;;;;;;0.95;0.80;;;29.30;1.00;;;;;;5103476;28;34487;-76
2022/07/04 07:08:29;;;;;;;2.67;0.90;;;29.50;1.00;;;;;;5104049;28;34351;-76
2022/07/04 07:10:56;;;;;;;3.92;1.00;;;29.70;1.00;;;;;;5104016;28;34385;-76
2022/07/04 07:13:22;;;;;;;3.53;0.90;;;29.80;1.00;;;;;;5104455;28;34419;-75
2022/07/04 07:15:48;;;;;;;1.45;0.90;;;29.60;1.00;;;;;;5104834;27;34389;-76
2022/07/04 07:18:16;;;;;;;1.05;0.70;;;29.20;1.00;;;;;;5132634;27;34355;-76
2022/07/04 07:20:42;;;;;;;1.55;0.82;;;29.10;1.00;;;;;;5115903;27;35626;-76
2022/07/04 07:23:08;;;;;;;1.48;0.90;;;29.20;1.00;;;;;;5129276;27;34188;-76
2022/07/04 07:25:34;;;;;;;1.20;0.70;;;29.40;1.00;;;;;;5104365;27;34923;-76
2022/07/04 07:28:00;;;;;;;1.05;0.80;;;29.30;1.00;;;;;;5101984;27;34174;-76
2022/07/04 07:30:26;;;;;;;3.40;1.00;;;29.20;1.00;;;;;;5101697;28;34106;-76
2022/07/04 07:32:52;;;;;;;0.93;0.80;;;29.20;1.00;;;;;;5112595;27;34294;-77
2022/07/04 07:35:18;;;;;;;2.00;0.90;;;29.20;1.00;;;;;;5138966;27;35456;-77
2022/07/04 07:37:44;;;;;;;2.42;1.05;;;29.20;1.00;;;;;;5103767;27;34212;-76
2022/07/04 07:40:10;;;;;;;1.13;0.90;;;29.10;1.00;;;;;;5086707;28;34229;-77
2022/07/04 07:42:36;;;;;;;2.80;0.90;;;29.30;1.00;;;;;;5121429;27;34263;-77
2022/07/04 07:45:03;;;;;;;1.63;0.80;;;29.50;1.00;;;;;;5138884;27;35505;-77
2022/07/04 07:47:29;;;;;;;1.20;0.80;;;29.80;1.00;;;;;;5103872;28;34243;-77
2022/07/04 07:49:55;;;;;;;1.38;0.98;;;29.80;1.00;;;;;;5103463;28;34256;-77
2022/07/04 07:52:21;;;;;;;1.20;0.98;;;29.70;1.00;;;;;;5104418;28;34794;-76
2022/07/04 07:54:47;;;;;;;3.22;1.08;;;29.50;1.00;;;;;;5134280;27;35631;-76
2022/07/04 07:57:13;;;;;;;1.40;0.80;;;29.50;1.00;;;;;;5133178;27;34066;-77
2022/07/04 07:59:39;;;;;;;1.92;0.93;;;29.50;1.00;;;;;;5136719;27;34117;-76
2022/07/04 08:02:05;;;;;;;1.00;0.70;;;29.60;1.00;;;;;;5101179;27;34654;-77
2022/07/04 08:04:34;;;;;;;1.02;0.70;;;29.50;1.00;;;;;;5102322;27;36301;-77
2022/07/04 08:07:01;;;;;;;1.33;0.60;;;29.60;1.00;;;;;;5136790;27;35931;-76
2022/07/04 08:09:27;;;;;;;2.45;0.70;;;29.70;1.00;;;;;;5130331;27;34552;-77
2022/07/04 08:11:53;;;;;;;1.30;0.70;;;29.70;1.00;;;;;;5103863;27;34410;-76
2022/07/04 08:14:19;;;;;;;0.98;0.60;;;29.60;1.00;;;;;;5131350;27;36729;-77
2022/07/04 08:16:45;;;;;;;1.60;0.65;;;29.40;1.00;;;;;;5118672;27;34752;-76
2022/07/04 08:19:11;;;;;;;1.27;0.80;;;29.40;1.00;;;;;;5116720;27;34229;-77
2022/07/04 08:21:37;;;;;;;1.30;0.50;;;29.70;1.00;;;;;;5128029;27;34540;-77
2022/07/04 08:24:03;;;;;;;1.48;0.40;;;29.90;1.00;;;;;;5089897;27;36204;-76
2022/07/04 08:26:30;;;;;;;0.93;0.55;;;30.10;1.00;;;;;;5139865;27;34212;-78
2022/07/04 08:28:57;;;;;;;1.20;0.55;;;30.30;1.00;;;;;;5095652;27;34222;-76
2022/07/04 08:31:24;;;;;;;1.88;0.57;;;30.40;1.00;;;;;;5094021;27;34718;-77
2022/07/04 08:33:51;;;;;;;1.10;0.65;;;30.40;1.00;;;;;;5105707;27;35334;-77
2022/07/04 08:36:17;;;;;;;0.70;0.60;;;30.20;1.00;;;;;;5138155;27;34238;-76
2022/07/04 08:38:43;;;;;;;1.02;0.40;;;30.20;1.00;;;;;;5122791;27;34217;-77
2022/07/04 08:41:08;;;;;;;1.00;0.40;;;30.00;1.00;;;;;;5122664;27;34438;-77
2022/07/04 08:43:36;;;;;;;1.52;0.60;;;29.80;1.00;;;;;;5093654;27;35626;-79
2022/07/04 08:46:04;;;;;;;1.48;0.57;;;29.90;1.00;;;;;;5083948;28;34215;-77
2022/07/04 08:48:31;;;;;;;0.77;0.50;;;30.00;1.00;;;;;;5078828;28;34066;-77
2022/07/04 08:51:12;;;;;;;2.13;0.63;;;30.20;1.00;;;;;;5091878;28;34503;-77
2022/07/04 08:53:40;;;;;;;1.02;0.57;;;30.40;1.00;;;;;;5097531;28;35186;-76
2022/07/04 08:58:50;;;;;;;1.38;0.50;;;30.90;1.00;;;;;;5101588;27;34068;-76
2022/07/04 09:01:17;;;;;;;4.07;0.68;;;31.00;1.00;;;;;;5098854;27;34223;-77
2022/07/04 09:03:45;;;;;;;2.00;0.60;;;31.20;1.00;;;;;;5108993;27;34825;-77
2022/07/04 09:06:12;;;;;;;0.90;0.50;;;31.20;1.00;;;;;;5089643;27;34330;-77
2022/07/04 09:08:39;;;;;;;0.90;0.30;;;31.00;1.00;;;;;;5099537;28;34266;-76
2022/07/04 09:11:07;;;;;;;2.40;0.60;;;30.60;1.00;;;;;;5100366;27;34561;-76
2022/07/04 09:13:33;;;;;;;1.95;0.52;;;30.10;1.00;;;;;;5103083;27;35807;-77
2022/07/04 09:16:01;;;;;;;2.00;0.50;;;29.90;1.00;;;;;;5126632;27;34306;-79
2022/07/04 09:18:30;;;;;;;0.95;0.40;;;29.70;1.00;;;;;;5099571;27;34146;-76
2022/07/04 09:20:59;;;;;;;1.50;0.60;;;29.80;1.00;;;;;;5095287;28;34246;-77
2022/07/04 09:23:28;;;;;;;0.85;0.70;;;29.90;1.00;;;;;;5102959;27;34425;-77
2022/07/04 09:26:25;;;;;;;1.15;0.43;;;30.10;1.00;;;;;;5134972;27;34450;-77
2022/07/04 09:28:54;;;;;;;1.00;0.47;;;29.90;1.00;;;;;;5096883;27;34264;-82
2022/07/04 09:31:22;;;;;;;1.48;0.50;;;30.00;1.00;;;;;;5104224;27;34120;-76
2022/07/04 09:33:57;;;;;;;1.13;0.43;;;30.40;1.00;;;;;;5100427;28;34544;-76
2022/07/04 09:36:27;;;;;;;2.55;1.20;;;30.80;1.00;;;;;;5086209;28;34146;-77
2022/07/04 09:39:18;;;;;;;8.02;0.77;;;31.20;1.00;;;;;;5102991;27;34312;-76
2022/07/04 09:42:03;;;;;;;1.15;0.50;;;31.10;1.00;;;;;;5103816;28;34356;-77
2022/07/04 09:44:44;;;;;;;0.82;0.55;;;30.60;1.00;;;;;;5116808;27;34428;-77
2022/07/04 09:47:27;;;;;;;0.85;0.38;;;30.10;1.00;;;;;;5090005;28;34210;-77
2022/07/04 09:50:10;;;;;;;2.60;0.60;;;29.90;1.00;;;;;;5108082;27;34234;-76
2022/07/04 09:52:59;;;;;;;1.15;0.35;;;30.10;1.00;;;;;;5102807;28;34173;-77
2022/07/04 09:55:35;;;;;;;1.45;0.60;;;30.20;1.00;;;;;;5101788;28;35923;-77
2022/07/04 09:58:04;;;;;;;0.88;0.50;;;30.50;1.00;;;;;;5103664;27;34442;-76
2022/07/04 10:00:36;;;;;;;0.98;0.40;;;30.20;1.00;;;;;;5089521;28;34214;-77
2022/07/04 10:03:20;;;;;;;2.15;0.80;;;29.90;1.00;;;;;;5124132;27;34082;-78
2022/07/04 10:06:01;;;;;;;2.65;0.63;;;29.50;1.00;;;;;;5085111;28;36115;-78
2022/07/04 10:08:27;;;;;;;0.77;0.40;;;29.00;1.00;;;;;;5097290;28;34265;-77
2022/07/04 10:10:57;;;;;;;2.90;0.52;;;28.50;1.00;;;;;;5097887;28;34178;-78
2022/07/04 10:13:24;;;;;;;1.23;0.45;;;28.10;1.00;;;;;;5106838;27;34302;-79
2022/07/04 10:15:51;;;;;;;1.08;0.50;;;27.90;1.00;;;;;;5125617;27;34394;-78
2022/07/04 10:18:20;;;;;;;2.00;0.55;;;27.70;1.00;;;;;;5107093;28;34114;-76
2022/07/04 10:20:48;;;;;;;0.95;0.60;;;27.70;1.00;;;;;;5105732;27;34083;-77
2022/07/04 10:23:15;;;;;;;0.80;0.50;;;27.90;1.00;;;;;;5100570;27;34518;-77
2022/07/04 10:25:42;;;;;;;1.17;0.60;;;28.20;1.00;;;;;;5118887;27;35616;-77
2022/07/04 10:28:08;;;;;;;0.52;0.52;;;28.30;1.00;;;;;;5102176;28;34261;-77
2022/07/04 10:30:37;;;;;;;2.00;0.60;;;28.40;1.00;;;;;;5112626;27;34226;-76
2022/07/04 10:33:05;;;;;;;2.05;0.50;;;28.60;1.00;;;;;;5128648;27;34386;-77
2022/07/04 10:35:50;;;;;;;0.70;0.70;;;28.90;1.00;;;;;;5101315;27;36094;-80
2022/07/04 10:38:18;;;;;;;1.90;0.52;;;29.10;1.00;;;;;;5134585;27;34303;-76
2022/07/04 10:40:51;;;;;;;1.60;0.43;;;29.20;1.00;;;;;;5106311;27;34174;-77
2022/07/04 10:43:37;;;;;;;0.68;0.50;;;29.40;1.00;;;;;;5097546;27;34265;-78
2022/07/04 10:46:28;;;;;;;2.83;0.52;;;29.60;1.00;;;;;;5090834;27;36288;-78
2022/07/04 10:48:59;;;;;;;0.57;0.50;;;29.80;1.00;;;;;;5119909;27;34608;-76
2022/07/04 10:51:49;;;;;;;0.40;0.40;;;29.90;1.00;;;;;;5112456;27;34277;-78
2022/07/04 10:54:32;;;;;;;1.70;0.43;;;30.10;1.00;;;;;;5122769;27;34610;-77
2022/07/04 10:57:15;;;;;;;1.67;0.40;;;30.30;1.00;;;;;;5108988;27;34378;-77
2022/07/04 11:00:01;;;;;;;0.40;0.40;;;30.20;1.00;;;;;;5127617;27;34361;-77
2022/07/04 11:02:30;;;;;;;1.63;0.50;;;30.20;1.00;;;;;;5117779;27;34216;-77
2022/07/04 11:05:13;;;;;;;0.40;0.40;;;30.20;1.00;;;;;;5118723;27;34537;-77
2022/07/04 11:07:56;;;;;;;0.30;0.30;;;30.20;1.00;;;;;;5113751;27;36732;-77
2022/07/04 11:10:23;;;;;;;0.40;0.30;;;30.20;1.00;;;;;;5101133;27;33731;-78
2022/07/04 11:13:07;;;;;;;1.55;0.50;;;30.20;1.00;;;;;;5118723;27;34332;-78
2022/07/04 11:16:01;;;;;;;0.40;0.40;;;30.00;1.00;;;;;;5120822;27;33993;-77
2022/07/04 11:18:28;;;;;;;0.50;0.30;;;29.90;1.00;;;;;;5091800;27;35652;-77
2022/07/04 11:20:54;;;;;;;0.43;0.40;;;29.50;1.00;;;;;;5140802;27;34164;-78
2022/07/04 11:23:20;;;;;;;1.95;0.57;;;29.30;1.00;;;;;;5133810;27;34377;-77
2022/07/04 11:25:50;;;;;;;1.17;0.30;;;29.10;1.00;;;;;;5110383;27;35526;-77
2022/07/04 11:28:24;;;;;;;4.22;0.55;;;28.80;1.00;;;;;;5103885;28;37776;-80
2022/07/04 11:30:52;;;;;;;0.30;0.30;;;28.90;1.00;;;;;;5102827;27;34113;-77
2022/07/04 11:33:22;;;;;;;0.70;0.40;;;28.80;1.00;;;;;;5099715;28;34165;-76
2022/07/04 11:36:04;;;;;;;1.75;0.40;;;28.80;1.00;;;;;;5101066;28;34211;-77
2022/07/04 11:38:47;;;;;;;3.42;0.63;;;28.60;1.00;;;;;;5120864;27;35729;-76
2022/07/04 11:46:36;;;;;;;2.47;0.50;;;28.90;1.00;;;;;;5085779;28;34372;-77
2022/07/04 11:49:10;;;;;;;0.75;0.40;;;29.20;1.00;;;;;;5105177;27;34245;-77
2022/07/04 11:51:43;;;;;;;1.02;0.50;;;29.50;1.00;;;;;;5103910;28;34237;-81
2022/07/04 11:54:10;;;;;;;0.60;0.52;;;29.70;1.00;;;;;;5104163;28;34021;-77
2022/07/04 11:56:36;;;;;;;1.27;0.50;;;29.60;1.00;;;;;;5104310;28;34146;-76
2022/07/04 11:59:17;;;;;;;0.32;0.30;;;29.30;1.00;;;;;;5103636;28;36739;-76
2022/07/04 12:01:44;;;;;;;0.70;0.40;;;29.30;1.00;;;;;;5104784;27;34021;-77
2022/07/04 12:04:19;;;;;;;0.82;0.40;;;29.10;1.00;;;;;;5101940;28;34074;-77
2022/07/04 12:06:47;;;;;;;1.58;0.60;;;28.90;1.00;;;;;;5107706;27;34496;-78
2022/07/04 12:09:16;;;;;;;0.70;0.38;;;29.00;1.00;;;;;;5105940;27;35921;-77
2022/07/04 12:11:51;;;;;;;1.85;0.40;;;29.10;1.00;;;;;;5117189;27;34179;-76
2022/07/04 12:14:17;;;;;;;0.93;0.52;;;29.10;1.00;;;;;;5126056;27;34360;-77
2022/07/04 12:16:43;;;;;;;0.40;0.30;;;29.00;1.00;;;;;;5083999;28;34293;-77
2022/07/04 12:19:10;;;;;;;0.63;0.35;;;29.00;1.00;;;;;;5083841;28;36618;-77
2022/07/04 12:21:36;;;;;;;2.15;0.50;;;29.00;1.00;;;;;;5090824;28;34058;-76
2022/07/04 12:24:03;;;;;;;0.50;0.40;;;29.00;1.00;;;;;;5103511;28;34415;-77
2022/07/04 12:26:31;;;;;;;1.38;0.40;;;29.10;1.00;;;;;;5108149;27;34297;-77
2022/07/04 12:28:57;;;;;;;1.30;0.50;;;29.00;1.00;;;;;;5090372;27;36706;-76
2022/07/04 12:31:41;;;;;;;1.42;0.60;;;28.90;1.00;;;;;;5128483;27;34112;-79
2022/07/04 12:34:17;;;;;;;1.23;0.50;;;28.70;1.00;;;;;;5101972;28;34229;-77
2022/07/04 12:36:52;;;;;;;0.75;0.40;;;28.60;1.00;;;;;;5083204;28;34352;-77
2022/07/04 12:39:35;;;;;;;3.28;0.63;;;28.40;1.00;;;;;;5137422;27;35710;-77
2022/07/04 12:42:14;;;;;;;0.57;0.50;;;28.40;1.00;;;;;;5091060;27;34293;-76
2022/07/04 12:44:41;;;;;;;0.88;0.30;;;28.40;1.00;;;;;;5114483;27;34392;-76
2022/07/04 12:47:08;;;;;;;0.88;0.50;;;28.40;1.00;;;;;;5104555;28;34546;-80
2022/07/04 12:49:34;;;;;;;0.50;0.43;;;28.40;1.00;;;;;;5129901;27;36077;-76
2022/07/04 12:52:17;;;;;;;1.02;0.95;;;28.30;1.00;;;;;;5096284;28;34263;-76
2022/07/04 12:54:47;;;;;;;1.88;0.75;;;28.20;1.00;;;;;;5137390;27;34285;-77
2022/07/04 12:57:15;;;;;;;3.30;0.63;;;28.20;1.00;;;;;;5138725;27;34276;-77
2022/07/04 12:59:42;;;;;;;0.73;0.50;;;28.10;1.00;;;;;;5138693;27;36643;-78
2022/07/04 13:02:12;;;;;;;0.73;0.40;;;28.10;1.00;;;;;;5138008;27;34148;-78
2022/07/04 13:04:38;;;;;;;0.50;0.50;;;28.10;1.00;;;;;;5103559;28;34392;-77
2022/07/04 13:07:19;;;;;;;0.63;0.60;;;27.90;1.00;;;;;;5105242;27;34060;-77
2022/07/04 13:09:46;;;;;;;0.43;0.40;;;27.80;1.00;;;;;;5082022;28;35551;-76
2022/07/04 13:14:56;;;;;;;0.85;0.50;;;27.40;1.00;;;;;;5092287;28;34380;-76
2022/07/04 13:17:23;;;;;;;0.52;0.40;;;27.50;1.00;;;;;;5102913;28;34456;-76
2022/07/04 13:19:52;;;;;;;0.95;0.60;;;27.80;1.00;;;;;;5103038;28;34494;-76